Time;durP1;ratioP1;P1;durP2;ratioP2;P2;SDS_P1;SDS_P2;PMS_P1;PMS_P2;Temp;Humidity;BMP_temperature;BMP_pressure;BME280_temperature;BME280_humidity;BME280_pressure;Samples;Min_cycle;Max_cycle;Signal;HPM_P1;HPM_P2
2023/09/09 03:02:10;;;;;;;11.95;7.22;;;20.70;91.80;;;;;;5139816;23;20487;-88
2023/09/09 03:04:36;;;;;;;14.68;7.82;;;20.70;91.80;;;;;;5038426;28;20116;-88
2023/09/09 03:07:02;;;;;;;17.17;8.23;;;20.70;91.80;;;;;;5045374;28;20026;-87
2023/09/09 03:09:29;;;;;;;26.23;8.05;;;20.70;91.80;;;;;;5038197;28;20029;-88
2023/09/09 03:11:56;;;;;;;18.33;8.25;;;20.60;91.80;;;;;;5064709;28;20108;-86
2023/09/09 03:14:22;;;;;;;31.23;8.05;;;20.60;91.80;;;;;;5060805;28;20029;-85
2023/09/09 03:16:48;;;;;;;16.67;8.82;;;20.60;91.80;;;;;;5033562;28;20036;-85
2023/09/09 03:19:14;;;;;;;15.32;8.70;;;20.60;91.70;;;;;;5048684;28;20456;-85
2023/09/09 03:21:39;;;;;;;16.48;8.43;;;20.60;91.70;;;;;;5043355;28;20041;-86
2023/09/09 03:24:05;;;;;;;12.13;7.70;;;20.70;91.80;;;;;;5043852;28;20040;-85
2023/09/09 03:26:32;;;;;;;15.77;8.32;;;20.70;91.80;;;;;;5035145;28;20546;-86
2023/09/09 03:28:59;;;;;;;20.95;8.45;;;20.70;91.80;;;;;;5028955;28;20029;-85
2023/09/09 03:31:24;;;;;;;15.23;7.68;;;20.60;91.70;;;;;;5044227;28;20017;-86
2023/09/09 03:33:50;;;;;;;19.30;8.15;;;20.60;91.70;;;;;;5035860;28;20028;-85
2023/09/09 03:36:15;;;;;;;14.40;8.95;;;20.60;91.70;;;;;;5027213;28;20029;-86
2023/09/09 03:38:41;;;;;;;14.45;7.35;;;20.60;91.70;;;;;;5061420;28;20021;-84
2023/09/09 03:41:07;;;;;;;12.95;7.90;;;20.60;91.70;;;;;;5059023;28;20476;-85
2023/09/09 03:43:37;;;;;;;12.55;6.45;;;20.60;91.70;;;;;;5033058;28;20021;-84
2023/09/09 03:46:03;;;;;;;15.43;7.50;;;20.60;91.70;;;;;;5033631;28;20499;-85
2023/09/09 03:48:30;;;;;;;16.35;8.02;;;20.60;91.70;;;;;;5033968;28;20024;-84
2023/09/09 03:51:00;;;;;;;23.80;8.57;;;20.60;91.60;;;;;;5045062;28;20045;-86
2023/09/09 03:53:26;;;;;;;;;;;20.60;91.60;;;;;;5049702;28;20025;-85
2023/09/09 03:55:52;;;;;;;13.07;7.00;;;20.60;91.60;;;;;;5029568;28;19905;-85
2023/09/09 03:58:18;;;;;;;14.48;8.05;;;20.60;91.60;;;;;;5059193;28;20040;-84
2023/09/09 04:00:46;;;;;;;12.27;7.55;;;20.60;91.60;;;;;;5044335;28;20689;-85
2023/09/09 04:03:12;;;;;;;17.33;7.68;;;20.60;91.60;;;;;;5024326;28;20041;-85
2023/09/09 04:05:38;;;;;;;14.57;8.15;;;20.60;91.60;;;;;;5031692;28;20028;-85
2023/09/09 04:08:08;;;;;;;18.42;7.75;;;20.60;91.60;;;;;;5032046;28;20017;-85
2023/09/09 04:10:34;;;;;;;15.65;7.47;;;20.60;91.60;;;;;;5032831;28;20045;-84
2023/09/09 04:13:00;;;;;;;15.35;7.78;;;20.60;91.60;;;;;;5032810;28;20124;-85
2023/09/09 04:15:25;;;;;;;12.10;7.75;;;20.60;91.90;;;;;;5029116;28;20547;-84
2023/09/09 04:17:51;;;;;;;19.48;8.13;;;20.60;91.60;;;;;;5035586;28;20021;-85
2023/09/09 04:20:17;;;;;;;16.67;7.22;;;20.60;91.60;;;;;;5033320;28;20037;-86
2023/09/09 04:22:42;;;;;;;15.50;7.95;;;20.60;91.60;;;;;;5043793;28;20017;-86
2023/09/09 04:25:08;;;;;;;12.00;6.93;;;20.60;91.60;;;;;;5034950;28;20024;-85
2023/09/09 04:27:34;;;;;;;13.73;6.75;;;20.60;91.50;;;;;;5041228;28;20024;-85
2023/09/09 04:29:59;;;;;;;16.50;8.10;;;20.60;91.50;;;;;;5045475;28;20040;-85
2023/09/09 04:32:25;;;;;;;18.67;8.52;;;20.60;91.50;;;;;;5043048;28;20485;-85
2023/09/09 04:34:50;;;;;;;12.35;7.00;;;20.60;91.50;;;;;;5058320;28;20030;-84
2023/09/09 04:37:16;;;;;;;16.63;7.07;;;20.60;91.50;;;;;;5033118;28;20477;-85
2023/09/09 04:39:41;;;;;;;14.75;7.65;;;20.60;91.50;;;;;;5060186;28;20025;-86
2023/09/09 04:42:07;;;;;;;11.80;7.22;;;20.60;91.50;;;;;;5024435;28;20028;-86
2023/09/09 04:44:32;;;;;;;14.38;6.60;;;20.60;91.50;;;;;;5029093;28;20083;-85
2023/09/09 04:46:58;;;;;;;21.08;8.40;;;20.60;91.50;;;;;;5034072;28;20477;-85
2023/09/09 04:49:24;;;;;;;13.88;7.20;;;20.60;91.50;;;;;;5033067;28;20116;-85
2023/09/09 04:51:50;;;;;;;17.35;8.15;;;20.50;91.50;;;;;;5059275;28;20029;-86
2023/09/09 04:54:18;;;;;;;17.83;8.38;;;20.60;91.50;;;;;;5023205;28;20504;-86
2023/09/09 04:56:44;;;;;;;15.45;8.25;;;20.60;91.80;;;;;;5045008;28;20052;-86
2023/09/09 04:59:09;;;;;;;20.38;8.43;;;20.50;91.40;;;;;;5032116;28;20032;-86
2023/09/09 05:01:35;;;;;;;13.43;7.78;;;20.50;91.40;;;;;;5041923;28;20029;-86
2023/09/09 05:04:01;;;;;;;12.05;7.53;;;20.50;91.40;;;;;;5031933;28;20111;-86
2023/09/09 05:06:27;;;;;;;16.15;7.47;;;20.50;91.40;;;;;;5032325;28;20036;-86
2023/09/09 05:08:52;;;;;;;18.55;7.72;;;20.50;91.40;;;;;;5039210;28;20021;-86
2023/09/09 05:11:18;;;;;;;14.00;7.82;;;20.60;91.50;;;;;;5044446;28;20032;-87
2023/09/09 05:13:43;;;;;;;19.55;7.35;;;20.50;91.40;;;;;;5045949;28;20118;-86
2023/09/09 05:16:09;;;;;;;10.38;6.75;;;20.50;91.40;;;;;;5048122;28;20024;-86
2023/09/09 05:18:34;;;;;;;10.90;7.32;;;20.50;91.40;;;;;;5048067;28;20036;-86
2023/09/09 05:21:00;;;;;;;12.20;6.82;;;20.50;91.40;;;;;;5047622;28;20223;-86
2023/09/09 05:23:26;;;;;;;15.68;7.07;;;20.50;91.40;;;;;;5039838;28;20091;-85
2023/09/09 05:25:51;;;;;;;15.02;6.35;;;20.50;91.40;;;;;;5029890;28;20048;-86
2023/09/09 05:28:17;;;;;;;16.45;6.88;;;20.50;91.40;;;;;;5032258;28;20025;-86
2023/09/09 05:30:43;;;;;;;13.52;6.93;;;20.50;91.40;;;;;;5044126;28;20025;-86
2023/09/09 05:33:08;;;;;;;13.20;6.82;;;20.50;91.30;;;;;;5031957;28;20079;-87
2023/09/09 05:35:34;;;;;;;13.27;7.25;;;20.50;91.30;;;;;;5026996;28;20194;-86
2023/09/09 05:38:00;;;;;;;17.02;7.18;;;20.50;91.30;;;;;;5048079;28;20019;-86
2023/09/09 05:40:25;;;;;;;9.20;6.25;;;20.50;91.30;;;;;;5046833;28;20490;-86
2023/09/09 05:42:51;;;;;;;12.85;7.18;;;20.50;91.30;;;;;;5024632;28;20024;-86
2023/09/09 05:45:17;;;;;;;11.60;7.30;;;20.50;91.30;;;;;;5021583;28;20424;-85
2023/09/09 05:47:44;;;;;;;15.82;7.07;;;20.50;91.30;;;;;;5039942;28;20022;-86
2023/09/09 05:50:11;;;;;;;12.82;7.25;;;20.50;91.30;;;;;;5016911;28;20128;-86
2023/09/09 05:52:37;;;;;;;16.23;7.22;;;20.50;91.30;;;;;;5026813;28;20056;-86
2023/09/09 05:55:03;;;;;;;11.93;7.10;;;20.50;91.30;;;;;;5027556;28;20044;-86
2023/09/09 05:57:29;;;;;;;10.80;6.90;;;20.50;91.30;;;;;;5027476;28;20074;-86
2023/09/09 05:59:54;;;;;;;16.23;8.13;;;20.50;91.30;;;;;;5024522;28;20183;-85
2023/09/09 06:02:21;;;;;;;12.13;7.70;;;20.50;91.60;;;;;;5061223;28;20067;-86
2023/09/09 06:04:49;;;;;;;19.13;7.43;;;20.50;91.30;;;;;;5029582;28;20029;-86
2023/09/09 06:07:16;;;;;;;20.02;7.63;;;20.50;91.30;;;;;;5046656;28;20025;-85
2023/09/09 06:09:45;;;;;;;12.65;7.07;;;20.50;91.30;;;;;;5028680;28;20036;-86
2023/09/09 06:12:11;;;;;;;10.98;7.05;;;20.50;91.30;;;;;;5030646;28;20029;-85
2023/09/09 06:14:36;;;;;;;13.57;7.45;;;20.50;91.40;;;;;;5024790;28;20104;-86
2023/09/09 06:17:02;;;;;;;13.70;7.72;;;20.50;91.30;;;;;;5031890;28;20043;-86
2023/09/09 06:19:31;;;;;;;20.30;8.23;;;20.50;91.30;;;;;;5031575;28;20469;-86
2023/09/09 06:21:57;;;;;;;14.07;8.15;;;20.50;91.40;;;;;;5058489;28;20024;-86
2023/09/09 06:24:23;;;;;;;18.40;8.82;;;20.50;91.40;;;;;;5034292;28;20028;-86
2023/09/09 06:26:49;;;;;;;12.88;8.00;;;20.50;91.40;;;;;;5052921;28;20365;-87
2023/09/09 06:29:14;;;;;;;16.00;8.77;;;20.50;91.40;;;;;;5036415;28;20099;-87
2023/09/09 06:31:41;;;;;;;12.82;8.30;;;20.50;91.50;;;;;;5036937;28;20030;-86
2023/09/09 06:34:09;;;;;;;14.85;7.55;;;20.50;91.40;;;;;;5035928;28;20040;-86
2023/09/09 06:36:34;;;;;;;19.42;8.77;;;20.50;91.40;;;;;;5059684;28;20021;-86
2023/09/09 06:39:00;;;;;;;14.23;8.02;;;20.50;91.40;;;;;;5064020;28;20032;-86
2023/09/09 06:41:26;;;;;;;12.40;7.82;;;20.50;91.40;;;;;;5024201;28;20120;-85
2023/09/09 06:43:51;;;;;;;11.73;7.78;;;20.50;91.40;;;;;;5032145;28;20108;-86
2023/09/09 06:46:18;;;;;;;19.17;9.65;;;20.50;91.40;;;;;;5031309;28;20017;-85
2023/09/09 06:48:43;;;;;;;17.60;9.10;;;20.50;91.40;;;;;;5032722;28;20025;-85
2023/09/09 06:51:09;;;;;;;18.85;8.77;;;20.60;91.50;;;;;;5047657;28;20508;-86
2023/09/09 06:53:35;;;;;;;12.32;8.50;;;20.50;91.50;;;;;;5032800;28;20025;-85
2023/09/09 06:56:01;;;;;;;17.95;8.68;;;20.60;91.50;;;;;;5045674;28;20465;-86
2023/09/09 06:58:27;;;;;;;14.15;8.63;;;20.60;91.50;;;;;;5034077;28;20709;-85
2023/09/09 07:00:53;;;;;;;15.05;8.55;;;20.60;91.50;;;;;;5034497;28;20100;-84
2023/09/09 07:03:19;;;;;;;16.65;8.40;;;20.60;91.50;;;;;;5027628;28;20028;-86
2023/09/09 07:05:46;;;;;;;14.43;8.07;;;20.60;91.50;;;;;;5047126;28;20540;-86
2023/09/09 07:08:11;;;;;;;12.30;7.78;;;20.60;91.50;;;;;;5033561;28;20071;-86
2023/09/09 07:10:37;;;;;;;16.83;9.30;;;20.60;91.50;;;;;;5058835;28;20663;-86
2023/09/09 07:13:03;;;;;;;16.35;9.73;;;20.60;91.50;;;;;;5033753;28;20033;-86
2023/09/09 07:15:29;;;;;;;14.13;8.95;;;20.60;91.50;;;;;;5050624;28;20028;-86
2023/09/09 07:17:55;;;;;;;20.10;9.35;;;20.60;91.50;;;;;;5032307;28;20040;-85
2023/09/09 07:20:22;;;;;;;16.42;8.73;;;20.60;91.50;;;;;;5048412;28;20347;-86
2023/09/09 07:22:47;;;;;;;13.68;8.18;;;20.60;91.50;;;;;;5048335;28;20035;-86
2023/09/09 07:25:13;;;;;;;16.13;8.07;;;20.60;91.60;;;;;;5032432;28;20026;-85
2023/09/09 07:27:39;;;;;;;18.67;9.13;;;20.60;91.60;;;;;;5046952;28;20049;-87
2023/09/09 07:30:06;;;;;;;13.32;8.40;;;20.60;91.60;;;;;;5032776;28;20444;-86
2023/09/09 07:32:32;;;;;;;18.05;9.18;;;20.60;91.60;;;;;;5034094;28;20069;-86
2023/09/09 07:35:02;;;;;;;21.00;10.02;;;20.60;91.60;;;;;;5032957;28;20115;-86
2023/09/09 07:37:27;;;;;;;15.70;8.80;;;20.60;91.60;;;;;;5028405;28;20425;-86
2023/09/09 07:39:53;;;;;;;14.27;7.85;;;20.60;91.60;;;;;;5034006;28;20025;-87
2023/09/09 07:42:19;;;;;;;14.63;8.15;;;20.60;91.60;;;;;;5022195;28;20021;-86
2023/09/09 07:44:45;;;;;;;15.75;8.75;;;20.60;91.70;;;;;;5024757;28;20021;-86
2023/09/09 07:47:11;;;;;;;17.27;9.38;;;20.60;91.70;;;;;;5026543;28;20029;-86
2023/09/09 07:49:37;;;;;;;15.90;8.35;;;20.60;91.70;;;;;;5043680;28;20042;-86
2023/09/09 07:52:04;;;;;;;16.17;8.43;;;20.60;91.70;;;;;;5042100;28;20139;-87
2023/09/09 07:54:32;;;;;;;14.98;8.77;;;20.70;91.70;;;;;;5024492;28;20033;-85
2023/09/09 07:57:02;;;;;;;16.98;9.63;;;20.60;91.70;;;;;;5045568;28;20098;-85
2023/09/09 07:59:28;;;;;;;17.43;9.30;;;20.70;91.80;;;;;;5030429;28;20071;-85
2023/09/09 08:01:54;;;;;;;21.75;11.02;;;20.60;91.70;;;;;;5044672;28;20025;-85
2023/09/09 08:04:21;;;;;;;14.98;9.68;;;20.60;91.70;;;;;;5047153;28;20025;-84
2023/09/09 08:06:46;;;;;;;18.15;9.80;;;20.60;91.70;;;;;;5029945;28;20017;-85
2023/09/09 08:09:13;;;;;;;23.80;11.95;;;20.60;91.80;;;;;;5030230;28;20025;-84
2023/09/09 08:11:38;;;;;;;12.88;8.20;;;20.70;91.80;;;;;;5041285;28;20025;-85
2023/09/09 08:14:04;;;;;;;14.77;8.70;;;20.70;91.80;;;;;;5043609;28;20028;-85
2023/09/09 08:16:30;;;;;;;15.80;9.50;;;20.70;91.80;;;;;;5040347;28;20111;-84
2023/09/09 08:18:57;;;;;;;21.35;11.23;;;20.70;91.80;;;;;;5028201;28;20029;-85
2023/09/09 08:21:23;;;;;;;14.05;9.05;;;20.70;91.80;;;;;;5044648;28;20412;-85
2023/09/09 08:23:49;;;;;;;17.20;9.50;;;20.70;91.90;;;;;;5027090;28;20025;-85
2023/09/09 08:26:14;;;;;;;19.48;9.02;;;20.70;91.80;;;;;;5045594;28;20048;-84
2023/09/09 08:28:40;;;;;;;16.42;9.93;;;20.70;91.80;;;;;;5040708;28;20091;-85
2023/09/09 08:31:06;;;;;;;15.80;9.75;;;20.70;91.80;;;;;;5028953;28;20128;-85
2023/09/09 08:33:32;;;;;;;22.70;11.43;;;20.70;91.80;;;;;;5045143;28;20036;-85
2023/09/09 08:35:58;;;;;;;16.35;11.45;;;20.70;91.80;;;;;;5028688;28;20018;-85
2023/09/09 08:38:24;;;;;;;23.70;11.48;;;20.70;91.80;;;;;;5033630;28;20035;-85
2023/09/09 08:41:10;;;;;;;16.77;10.27;;;20.70;91.80;;;;;;5031640;28;20033;-84
2023/09/09 08:43:59;;;;;;;16.90;10.65;;;20.70;91.80;;;;;;5024515;28;20056;-84
2023/09/09 08:46:25;;;;;;;21.95;9.45;;;20.70;91.80;;;;;;5026409;28;20031;-85
2023/09/09 08:48:52;;;;;;;19.40;11.27;;;20.70;91.80;;;;;;5027736;28;20017;-85
2023/09/09 08:51:22;;;;;;;18.58;11.70;;;20.70;91.80;;;;;;5028163;28;20029;-85
2023/09/09 08:53:52;;;;;;;23.83;13.55;;;20.70;91.80;;;;;;5026316;28;20082;-85
2023/09/09 08:56:18;;;;;;;16.67;10.27;;;20.70;91.80;;;;;;5041464;28;20029;-85
2023/09/09 08:58:44;;;;;;;27.00;14.40;;;20.70;91.80;;;;;;5030959;28;20025;-85
2023/09/09 09:01:15;;;;;;;20.88;11.43;;;20.70;91.80;;;;;;5024280;28;20055;-84
2023/09/09 09:03:40;;;;;;;23.63;13.95;;;20.70;91.80;;;;;;5042567;28;20107;-86
2023/09/09 09:06:06;;;;;;;18.30;11.63;;;20.70;91.80;;;;;;5028844;28;20473;-85
2023/09/09 09:08:33;;;;;;;22.27;12.68;;;20.70;91.80;;;;;;5028063;28;20078;-84
2023/09/09 09:11:01;;;;;;;25.80;12.07;;;20.70;91.80;;;;;;5043546;28;20027;-84
2023/09/09 09:13:31;;;;;;;26.73;14.18;;;20.70;91.80;;;;;;5048590;28;20074;-85
2023/09/09 09:15:58;;;;;;;18.38;11.63;;;20.70;91.80;;;;;;5029072;28;20075;-86
2023/09/09 09:18:23;;;;;;;20.80;11.85;;;20.70;91.80;;;;;;5027750;28;20033;-85
2023/09/09 09:20:51;;;;;;;28.88;14.98;;;20.70;91.90;;;;;;5050244;28;20021;-85
2023/09/09 09:23:17;;;;;;;24.80;11.52;;;20.70;91.90;;;;;;5031845;28;20075;-85
2023/09/09 09:25:45;;;;;;;20.30;11.73;;;20.70;91.90;;;;;;5030102;28;20462;-86
2023/09/09 09:28:15;;;;;;;25.13;13.88;;;20.80;91.90;;;;;;5028863;28;20474;-85
2023/09/09 09:30:41;;;;;;;;;;;20.70;91.90;;;;;;5029554;28;20040;-86
2023/09/09 09:33:07;;;;;;;24.25;13.07;;;20.80;91.90;;;;;;5020918;28;19905;-85
2023/09/09 09:35:36;;;;;;;20.00;10.73;;;20.80;91.90;;;;;;5031402;28;20108;-85
2023/09/09 09:38:07;;;;;;;22.73;14.27;;;20.70;91.90;;;;;;5031741;28;20478;-86
2023/09/09 09:40:35;;;;;;;19.42;12.65;;;20.70;91.90;;;;;;5030514;28;20032;-85
2023/09/09 09:43:01;;;;;;;16.73;10.88;;;20.80;91.90;;;;;;5046879;28;20082;-85
2023/09/09 09:45:30;;;;;;;18.70;11.02;;;20.80;91.90;;;;;;5025299;28;20033;-85
2023/09/09 09:47:58;;;;;;;13.98;8.27;;;20.80;91.90;;;;;;5046162;28;20025;-86
2023/09/09 09:50:30;;;;;;;19.67;11.48;;;20.80;91.90;;;;;;5026568;28;20156;-86
2023/09/09 09:53:05;;;;;;;21.60;12.43;;;20.80;91.90;;;;;;5032646;28;20036;-85
2023/09/09 09:55:34;;;;;;;21.35;11.57;;;20.80;91.90;;;;;;5025571;28;20036;-85
2023/09/09 09:58:04;;;;;;;24.55;10.77;;;20.80;91.90;;;;;;5032787;28;20100;-85
2023/09/09 10:00:32;;;;;;;18.73;10.07;;;20.80;91.90;;;;;;5044774;28;20032;-85
2023/09/09 10:03:00;;;;;;;20.73;10.50;;;20.80;92.00;;;;;;5035824;28;20040;-87
2023/09/09 10:05:27;;;;;;;18.17;10.30;;;20.80;91.90;;;;;;5032290;28;20174;-85
2023/09/09 10:08:10;;;;;;;16.27;10.70;;;20.90;92.00;;;;;;5044572;28;20094;-86
2023/09/09 10:10:39;;;;;;;18.42;10.20;;;20.80;92.00;;;;;;5036500;28;20055;-85
2023/09/09 10:13:16;;;;;;;15.90;10.75;;;20.80;91.90;;;;;;5031053;28;20031;-85
2023/09/09 10:15:44;;;;;;;18.13;10.55;;;20.80;92.00;;;;;;5049102;28;20358;-84
2023/09/09 10:18:12;;;;;;;16.50;9.32;;;20.90;92.00;;;;;;5049837;28;20023;-86
2023/09/09 10:20:39;;;;;;;13.70;9.10;;;20.90;92.00;;;;;;5037489;28;20422;-88
2023/09/09 10:23:05;;;;;;;12.77;8.88;;;20.90;92.00;;;;;;5030660;28;20021;-88
2023/09/09 10:25:32;;;;;;;13.25;8.60;;;20.90;92.00;;;;;;5063411;28;20124;-88
2023/09/09 10:27:58;;;;;;;13.02;8.60;;;20.90;92.00;;;;;;5050141;28;20013;-86
2023/09/09 10:30:25;;;;;;;22.50;9.90;;;20.90;92.00;;;;;;5060295;28;20075;-86
2023/09/09 10:32:53;;;;;;;18.90;11.00;;;20.90;92.00;;;;;;5064215;28;20396;-86
2023/09/09 10:35:19;;;;;;;15.10;9.35;;;20.90;92.00;;;;;;5032073;28;20029;-86
2023/09/09 10:37:46;;;;;;;11.70;8.80;;;20.90;92.10;;;;;;5034928;28;20028;-86
2023/09/09 10:40:14;;;;;;;13.30;8.63;;;20.90;92.10;;;;;;5031593;28;20477;-86
2023/09/09 10:42:43;;;;;;;13.77;7.80;;;20.90;92.10;;;;;;5059024;28;20365;-85
2023/09/09 10:45:28;;;;;;;11.02;7.45;;;21.00;92.10;;;;;;5029973;28;20078;-87
2023/09/09 10:48:03;;;;;;;16.23;8.55;;;21.00;92.10;;;;;;5063915;28;20017;-85
2023/09/09 10:50:44;;;;;;;11.43;7.28;;;21.00;92.20;;;;;;5048703;28;20072;-87
2023/09/09 10:53:16;;;;;;;19.48;8.95;;;21.00;92.20;;;;;;5050824;28;20507;-87
2023/09/09 10:55:43;;;;;;;16.33;8.35;;;21.00;92.20;;;;;;5034494;28;20366;-87
2023/09/09 10:58:09;;;;;;;12.10;7.50;;;21.00;92.20;;;;;;5046725;28;20025;-88
2023/09/09 11:00:40;;;;;;;15.55;7.95;;;21.00;92.20;;;;;;5050814;28;20151;-88
2023/09/09 11:03:22;;;;;;;14.18;7.68;;;21.00;92.30;;;;;;5048453;28;20033;-87
2023/09/09 11:06:03;;;;;;;13.55;8.90;;;21.00;92.20;;;;;;5062336;28;20032;-85
2023/09/09 11:08:35;;;;;;;9.80;7.28;;;21.00;92.30;;;;;;5034303;28;20043;-87
2023/09/09 11:11:15;;;;;;;12.48;7.68;;;21.00;92.30;;;;;;5046124;28;20025;-86
2023/09/09 11:13:54;;;;;;;18.00;8.18;;;21.00;92.30;;;;;;5030842;28;20029;-87
2023/09/09 11:16:24;;;;;;;12.82;7.45;;;21.00;92.30;;;;;;5048415;28;20025;-87
2023/09/09 11:18:52;;;;;;;9.85;7.72;;;21.00;92.40;;;;;;5034764;28;20025;-87
2023/09/09 11:21:21;;;;;;;10.00;6.85;;;21.10;92.40;;;;;;5035031;28;20075;-87
2023/09/09 11:23:48;;;;;;;11.65;7.55;;;21.10;92.50;;;;;;5047009;28;20040;-86
2023/09/09 11:26:15;;;;;;;13.70;8.25;;;21.10;92.50;;;;;;5033794;28;20040;-87
2023/09/09 11:28:44;;;;;;;14.18;7.70;;;21.10;92.80;;;;;;5046075;28;20029;-87
2023/09/09 11:31:14;;;;;;;17.08;7.70;;;21.10;93.20;;;;;;5030152;28;20048;-88
2023/09/09 11:33:40;;;;;;;;;;;21.40;94.90;;;;;;5061876;28;20088;-91
2023/09/09 11:36:06;;;;;;;21.70;8.27;;;21.60;95.70;;;;;;5030296;28;19951;-89
2023/09/09 11:38:32;;;;;;;16.80;7.38;;;21.60;95.20;;;;;;5061927;28;20083;-89
2023/09/09 11:40:59;;;;;;;11.05;7.15;;;21.60;95.60;;;;;;5027245;28;20026;-91
2023/09/09 11:43:24;;;;;;;10.40;7.05;;;21.80;96.40;;;;;;5023712;28;20021;-90
2023/09/09 11:45:51;;;;;;;10.20;6.80;;;21.80;96.00;;;;;;5029751;28;20033;-89
2023/09/09 11:48:17;;;;;;;13.52;6.82;;;21.80;96.00;;;;;;5031590;28;20053;-91
2023/09/09 11:50:43;;;;;;;10.65;6.72;;;21.90;95.90;;;;;;5033332;28;20424;-90
2023/09/09 11:53:13;;;;;;;12.20;7.03;;;21.90;95.80;;;;;;5044224;28;20028;-89
2023/09/09 11:55:39;;;;;;;8.23;6.10;;;22.00;96.10;;;;;;5059656;28;20039;-90
2023/09/09 11:58:07;;;;;;;10.88;6.55;;;22.00;96.30;;;;;;5050375;28;20029;-91
2023/09/09 12:00:37;;;;;;;10.98;6.85;;;22.10;96.10;;;;;;5061574;28;20056;-90
2023/09/09 12:03:03;;;;;;;8.50;5.78;;;22.10;96.10;;;;;;5035788;28;20041;-92
2023/09/09 12:05:31;;;;;;;10.55;6.68;;;22.20;96.30;;;;;;5032987;28;20029;-90
2023/09/09 12:08:02;;;;;;;9.20;6.57;;;22.30;95.50;;;;;;5060442;28;20029;-89
2023/09/09 12:10:35;;;;;;;13.95;6.53;;;22.20;95.80;;;;;;5032705;28;20041;-87
2023/09/09 12:13:01;;;;;;;9.57;6.68;;;22.20;95.60;;;;;;5030162;28;20029;-90
2023/09/09 12:15:27;;;;;;;8.57;6.45;;;22.20;96.00;;;;;;5032325;28;20029;-91
2023/09/09 12:17:53;;;;;;;10.98;6.85;;;22.30;95.90;;;;;;5032010;28;20021;-92
2023/09/09 12:20:19;;;;;;;11.95;6.28;;;22.30;96.30;;;;;;5034719;28;20512;-90
2023/09/09 12:22:51;;;;;;;12.63;6.55;;;22.40;96.50;;;;;;5058571;28;20420;-91
2023/09/09 12:25:35;;;;;;;11.18;7.30;;;22.50;96.00;;;;;;5032380;28;20037;-90
2023/09/09 12:28:02;;;;;;;13.38;6.10;;;22.50;95.90;;;;;;5024587;28;20023;-92
2023/09/09 12:30:41;;;;;;;9.32;6.72;;;22.50;95.70;;;;;;5031059;28;20187;-90
2023/09/09 12:33:12;;;;;;;10.27;6.95;;;22.50;95.60;;;;;;5026810;28;20025;-87
2023/09/09 12:35:47;;;;;;;10.57;6.97;;;22.50;95.70;;;;;;5038081;28;20017;-91
2023/09/09 12:38:17;;;;;;;13.90;6.05;;;22.50;95.80;;;;;;5025282;28;20071;-91
2023/09/09 12:40:47;;;;;;;13.63;6.60;;;22.60;95.50;;;;;;5031660;28;20058;-90
2023/09/09 12:43:14;;;;;;;12.05;6.65;;;22.60;95.60;;;;;;5023423;28;20032;-89
2023/09/09 12:45:46;;;;;;;9.27;6.53;;;22.60;95.60;;;;;;5043025;28;20033;-91
2023/09/09 12:48:12;;;;;;;7.45;5.72;;;22.60;95.40;;;;;;5032432;28;20040;-92
2023/09/09 12:50:38;;;;;;;14.05;6.60;;;22.70;95.00;;;;;;5031421;28;20482;-90
2023/09/09 12:53:03;;;;;;;14.35;6.60;;;22.80;95.30;;;;;;5027997;28;20477;-91
2023/09/09 12:55:30;;;;;;;11.45;7.28;;;22.70;95.50;;;;;;5028665;28;20026;-90
2023/09/09 12:57:55;;;;;;;9.25;6.13;;;22.70;95.70;;;;;;5032646;28;20025;-91
2023/09/09 13:00:21;;;;;;;14.80;6.60;;;22.70;95.60;;;;;;5027560;28;20082;-91
2023/09/09 13:02:47;;;;;;;10.75;6.68;;;22.70;95.40;;;;;;5061464;28;20059;-90
2023/09/09 13:05:13;;;;;;;10.02;7.47;;;22.70;95.70;;;;;;5029764;28;20024;-91
2023/09/09 13:07:40;;;;;;;10.07;6.45;;;22.80;95.50;;;;;;5029613;28;20120;-89
2023/09/09 13:10:06;;;;;;;14.95;7.05;;;22.70;95.40;;;;;;5063808;28;20722;-88
2023/09/09 13:12:32;;;;;;;12.45;6.53;;;22.70;95.30;;;;;;5027572;28;20033;-89
2023/09/09 13:14:59;;;;;;;10.35;6.95;;;22.60;95.20;;;;;;5060049;28;20025;-87
2023/09/09 13:17:24;;;;;;;13.02;7.03;;;22.60;95.30;;;;;;5031761;28;20033;-91
2023/09/09 13:19:50;;;;;;;12.48;7.03;;;22.60;95.30;;;;;;5053681;28;20021;-88
2023/09/09 13:22:15;;;;;;;10.23;6.97;;;22.60;95.40;;;;;;5034637;28;20025;-88
2023/09/09 13:24:41;;;;;;;8.18;6.78;;;22.60;95.40;;;;;;5029944;28;20025;-88
2023/09/09 13:27:07;;;;;;;14.23;6.72;;;22.50;95.40;;;;;;5046552;28;20028;-89
2023/09/09 13:29:33;;;;;;;11.07;6.97;;;22.60;95.40;;;;;;5032237;28;20072;-90
2023/09/09 13:32:02;;;;;;;10.23;7.03;;;22.50;95.40;;;;;;5034113;28;20052;-87
2023/09/09 13:34:35;;;;;;;13.20;7.47;;;22.50;95.30;;;;;;5050319;28;20040;-88
2023/09/09 13:37:01;;;;;;;11.23;7.35;;;22.50;95.30;;;;;;5036860;28;20037;-90
2023/09/09 13:39:26;;;;;;;16.30;7.75;;;22.50;95.20;;;;;;5038960;28;20511;-88
2023/09/09 13:41:52;;;;;;;19.63;7.10;;;22.40;95.20;;;;;;5052414;28;20029;-90
2023/09/09 13:44:18;;;;;;;14.40;7.50;;;22.40;95.20;;;;;;5052185;28;20031;-90
2023/09/09 13:46:43;;;;;;;10.23;7.13;;;22.40;95.20;;;;;;5064196;28;20505;-89
2023/09/09 13:49:09;;;;;;;9.77;7.03;;;22.40;95.20;;;;;;5068769;28;20027;-89
2023/09/09 13:51:35;;;;;;;9.40;6.10;;;22.40;95.20;;;;;;5064163;28;20041;-88
2023/09/09 13:54:02;;;;;;;14.20;7.63;;;22.40;95.30;;;;;;5039027;28;20112;-89
2023/09/09 13:56:28;;;;;;;11.13;7.18;;;22.40;95.50;;;;;;5033723;28;20041;-89
2023/09/09 13:58:55;;;;;;;10.50;7.05;;;22.40;95.80;;;;;;5068571;28;20037;-89
2023/09/09 14:01:23;;;;;;;12.27;7.63;;;22.40;95.70;;;;;;5038092;28;20032;-89
2023/09/09 14:03:49;;;;;;;10.30;7.25;;;22.50;95.80;;;;;;5036792;28;20032;-90
2023/09/09 14:06:15;;;;;;;10.52;7.15;;;22.50;96.00;;;;;;5055780;28;20557;-89
2023/09/09 14:08:40;;;;;;;13.32;7.32;;;22.50;95.90;;;;;;5041457;28;20029;-90
2023/09/09 14:11:06;;;;;;;10.70;7.32;;;22.50;95.80;;;;;;5040821;28;20145;-90
2023/09/09 14:13:38;;;;;;;11.80;6.68;;;22.40;95.80;;;;;;5032239;28;20036;-90
2023/09/09 14:16:05;;;;;;;11.38;6.00;;;22.50;95.70;;;;;;5041212;28;20071;-91
2023/09/09 14:18:31;;;;;;;17.05;7.53;;;22.50;95.60;;;;;;5041199;28;20033;-90
2023/09/09 14:20:56;;;;;;;10.02;7.28;;;22.50;95.80;;;;;;5042404;28;20036;-91
2023/09/09 14:23:22;;;;;;;9.15;6.80;;;22.50;95.60;;;;;;5038927;28;20021;-89
2023/09/09 14:25:51;;;;;;;9.65;7.05;;;22.50;95.50;;;;;;5036463;28;20020;-89
2023/09/09 14:28:16;;;;;;;8.70;6.43;;;22.50;95.20;;;;;;5054154;28;20517;-89
2023/09/09 14:30:46;;;;;;;11.05;6.85;;;22.50;95.20;;;;;;5037878;28;20053;-90
2023/09/09 14:33:12;;;;;;;13.00;6.53;;;22.50;95.10;;;;;;5030474;28;20021;-90
2023/09/09 14:35:38;;;;;;;8.80;6.88;;;22.50;95.10;;;;;;5040179;28;20033;-90
2023/09/09 14:38:04;;;;;;;9.35;6.28;;;22.50;95.10;;;;;;5043369;28;20028;-92
2023/09/09 14:40:29;;;;;;;10.80;7.45;;;22.50;95.10;;;;;;5054872;28;20535;-90
2023/09/09 14:42:55;;;;;;;9.52;6.18;;;22.50;94.90;;;;;;5039060;28;20017;-89
2023/09/09 14:45:21;;;;;;;16.63;6.55;;;22.60;94.90;;;;;;5037117;28;20084;-91
2023/09/09 14:47:46;;;;;;;11.40;7.10;;;22.60;95.00;;;;;;5063706;28;20099;-90
2023/09/09 14:50:13;;;;;;;9.57;6.53;;;22.60;94.90;;;;;;5036158;28;20473;-90
2023/09/09 14:52:39;;;;;;;9.43;6.40;;;22.50;94.80;;;;;;5033538;28;20028;-91
2023/09/09 14:55:05;;;;;;;11.68;5.97;;;22.60;95.10;;;;;;5033800;28;20470;-90
2023/09/09 14:57:31;;;;;;;13.68;6.93;;;22.60;94.90;;;;;;5050378;28;20041;-91
2023/09/09 14:59:57;;;;;;;10.27;6.60;;;22.60;94.80;;;;;;5062515;28;20563;-89
2023/09/09 15:02:23;;;;;;;13.25;6.78;;;22.60;94.80;;;;;;5035636;28;20029;-89
2023/09/09 15:04:49;;;;;;;9.93;6.38;;;22.60;94.80;;;;;;5047882;28;20494;-89
2023/09/09 15:07:15;;;;;;;10.93;6.90;;;22.60;95.10;;;;;;5058900;28;20116;-89
2023/09/09 15:09:41;;;;;;;11.15;7.00;;;22.60;95.20;;;;;;5032821;28;20550;-90
2023/09/09 15:12:09;;;;;;;12.00;6.90;;;22.70;95.00;;;;;;5065475;28;20037;-90
2023/09/09 15:14:37;;;;;;;8.65;5.88;;;22.70;95.10;;;;;;5034179;28;20025;-89
2023/09/09 15:17:04;;;;;;;10.70;6.93;;;22.60;95.00;;;;;;5031157;28;20028;-89
2023/09/09 15:19:30;;;;;;;15.00;6.90;;;22.70;94.90;;;;;;5034741;28;20335;-89
2023/09/09 15:21:57;;;;;;;16.58;7.00;;;22.60;94.80;;;;;;5033654;28;20025;-88
2023/09/09 15:24:23;;;;;;;12.23;7.13;;;22.60;94.70;;;;;;5029050;28;20538;-88
2023/09/09 15:26:50;;;;;;;11.13;7.47;;;22.60;94.70;;;;;;5032414;28;20116;-88
2023/09/09 15:29:16;;;;;;;14.57;7.60;;;22.60;94.60;;;;;;5034493;28;20115;-88
2023/09/09 15:31:41;;;;;;;9.88;7.25;;;22.60;94.60;;;;;;5029106;28;20590;-89
2023/09/09 15:34:07;;;;;;;14.18;7.10;;;22.60;94.60;;;;;;5034130;28;20474;-88
2023/09/09 15:36:33;;;;;;;8.85;6.65;;;22.60;94.60;;;;;;5026554;28;20020;-86
2023/09/09 15:38:58;;;;;;;11.57;7.28;;;22.50;94.60;;;;;;5033288;28;20470;-87